Time;durP1;ratioP1;P1;durP2;ratioP2;P2;SDS_P1;SDS_P2;PMS_P1;PMS_P2;Temp;Humidity;BMP_temperature;BMP_pressure;BME280_temperature;BME280_humidity;BME280_pressure;Samples;Min_cycle;Max_cycle;Signal;HPM_P1;HPM_P2
2023/12/22 00:00:39;;;;;;;;;;;;;;;;;;;;;
2023/12/22 00:01:56;;;;;;;6.60;2.65;;;;;;;4.24;100.00;99854.38;1005728;29;20381;-56
2023/12/22 00:02:45;;;;;;;8.55;1.98;;;;;;;4.19;100.00;99858.63;1014189;29;20292;-54
2023/12/22 00:03:47;;;;;;;4.07;1.20;;;;;;;4.15;100.00;99857.41;1016380;29;20311;-49
2023/12/22 00:04:54;;;;;;;8.27;1.83;;;;;;;4.21;100.00;99846.06;1018050;29;20304;-54
2023/12/22 00:06:32;;;;;;;12.43;2.17;;;;;;;4.28;100.00;99844.25;1017927;29;20319;-53
2023/12/22 00:07:48;;;;;;;11.07;3.20;;;;;;;4.26;100.00;99851.56;1013024;29;20311;-55
2023/12/22 00:09:02;;;;;;;5.72;1.85;;;;;;;4.22;100.00;99858.22;1006959;29;20385;-55
2023/12/22 00:10:12;;;;;;;13.10;1.70;;;;;;;4.27;100.00;99855.81;1017564;29;20586;-49
2023/12/22 00:11:10;;;;;;;14.50;2.10;;;;;;;4.17;100.00;99864.09;1024519;29;20413;-47
2023/12/22 00:12:05;;;;;;;12.77;1.77;;;;;;;4.19;100.00;99869.19;1016550;29;20310;-46
2023/12/22 00:13:12;;;;;;;8.80;1.27;;;;;;;4.10;100.00;99862.44;1007672;29;20076;-54
2023/12/22 00:13:53;;;;;;;14.70;2.83;;;;;;;4.10;100.00;99865.06;1013250;29;20364;-46
2023/12/22 00:14:43;;;;;;;9.48;2.10;;;;;;;4.08;100.00;99862.63;1006227;29;20409;-55
2023/12/22 00:15:30;;;;;;;11.35;1.48;;;;;;;4.03;100.00;99868.50;1006180;29;20310;-55
2023/12/22 00:16:25;;;;;;;14.15;1.90;;;;;;;4.11;100.00;99867.53;1003891;29;20400;-48
2023/12/22 00:17:27;;;;;;;19.02;1.60;;;;;;;4.13;100.00;99869.97;1001940;29;20314;-48
2023/12/22 00:18:31;;;;;;;12.70;1.98;;;;;;;4.13;100.00;99864.72;1001842;29;20854;-47
2023/12/22 00:19:40;;;;;;;10.85;2.53;;;;;;;4.07;100.00;99862.84;1012860;29;20352;-55
2023/12/22 00:20:28;;;;;;;19.77;2.63;;;;;;;4.06;100.00;99869.13;1013465;29;20133;-48
2023/12/22 00:21:35;;;;;;;;;;;;;;;;;;;;;
2023/12/22 00:23:44;;;;;;;10.20;2.03;;;;;;;4.16;100.00;99874.84;1001217;29;20869;-54
2023/12/22 00:24:36;;;;;;;16.95;2.80;;;;;;;4.14;100.00;99876.88;1006306;29;20314;-46
2023/12/22 00:25:59;;;;;;;14.23;2.13;;;;;;;4.15;100.00;99874.03;1004814;29;20041;-46
2023/12/22 00:27:28;;;;;;;6.40;2.08;;;;;;;4.16;100.00;99880.13;1008270;29;20321;-51
2023/12/22 00:28:22;;;;;;;14.52;1.40;;;;;;;4.15;100.00;99889.03;1004289;29;20329;-55
2023/12/22 00:29:35;;;;;;;10.05;1.52;;;;;;;4.25;100.00;99889.47;1007080;29;20399;-54
2023/12/22 00:30:37;;;;;;;12.52;2.13;;;;;;;4.29;100.00;99880.97;1009452;29;20298;-47
2023/12/22 00:31:22;;;;;;;15.45;1.90;;;;;;;4.27;100.00;99882.16;1003392;29;20665;-48
2023/12/22 00:32:21;;;;;;;12.77;1.98;;;;;;;4.20;100.00;99886.63;1000923;29;20315;-55
2023/12/22 00:33:29;;;;;;;16.15;2.65;;;;;;;4.27;100.00;99892.72;1006668;29;20819;-48
2023/12/22 00:34:23;;;;;;;;;;;;;;;;;;;;;
2023/12/22 00:35:56;;;;;;;;;;;;;;;;;;;;;
2023/12/22 00:36:51;;;;;;;12.20;1.85;;;;;;;4.37;100.00;99902.88;1005843;29;20348;-50
2023/12/22 00:37:35;;;;;;;11.57;2.28;;;;;;;4.42;100.00;99877.56;1008183;29;20309;-54
2023/12/22 00:38:32;;;;;;;7.13;1.70;;;;;;;4.51;100.00;99892.16;1010403;29;20368;-55
2023/12/22 00:40:00;;;;;;;6.72;1.44;;;;;;;4.59;100.00;99885.88;1009211;29;20410;-54
2023/12/22 00:40:49;;;;;;;11.35;1.90;;;;;;;4.62;100.00;99888.94;1004317;29;20155;-48
2023/12/22 00:41:34;;;;;;;11.45;2.03;;;;;;;4.61;100.00;99895.22;1000581;29;20331;-46
2023/12/22 00:42:46;;;;;;;10.52;2.35;;;;;;;4.70;100.00;99895.06;1006114;29;20345;-46
2023/12/22 00:44:13;;;;;;;14.70;2.40;;;;;;;4.75;100.00;99892.63;1010413;29;20317;-47
2023/12/22 00:45:26;;;;;;;8.65;1.05;;;;;;;4.84;100.00;99881.66;1001594;29;20046;-46
2023/12/22 00:46:19;;;;;;;17.85;1.98;;;;;;;4.83;100.00;99882.66;1005038;29;20788;-54
2023/12/22 00:47:14;;;;;;;10.05;1.60;;;;;;;4.81;100.00;99881.25;1009380;29;20305;-47
2023/12/22 00:47:54;;;;;;;13.85;2.47;;;;;;;4.83;100.00;99879.22;1001786;29;20314;-46
2023/12/22 00:48:57;;;;;;;19.25;1.65;;;;;;;4.88;100.00;99871.50;999547;29;20357;-53
2023/12/22 00:50:05;;;;;;;9.23;1.30;;;;;;;4.93;100.00;99871.69;1001584;29;20429;-52
2023/12/22 00:51:07;;;;;;;12.27;2.13;;;;;;;5.01;100.00;99875.97;1007690;29;20332;-49
2023/12/22 00:52:35;;;;;;;6.30;1.55;;;;;;;4.99;100.00;99889.38;1006106;29;20294;-54
2023/12/22 00:53:27;;;;;;;18.05;2.03;;;;;;;5.04;100.00;99900.13;1015485;29;20313;-54
2023/12/22 00:54:31;;;;;;;8.70;1.98;;;;;;;4.97;100.00;99894.06;1013815;29;20311;-47
2023/12/22 00:55:32;;;;;;;13.48;1.38;;;;;;;5.08;100.00;99890.78;1006930;29;20721;-52
2023/12/22 00:56:22;;;;;;;14.48;3.72;;;;;;;5.14;100.00;99889.97;1012920;29;20313;-48
2023/12/22 00:57:23;;;;;;;12.15;3.03;;;;;;;5.09;100.00;99892.41;1012056;29;20315;-46
2023/12/22 00:58:21;;;;;;;11.38;2.25;;;;;;;5.10;100.00;99883.47;1003752;29;20318;-46
2023/12/22 00:59:47;;;;;;;8.10;1.52;;;;;;;5.09;100.00;99889.78;1005904;29;20321;-49
2023/12/22 01:00:38;;;;;;;19.23;2.33;;;;;;;5.11;100.00;99871.91;1010832;29;20335;-47
2023/12/22 01:01:48;;;;;;;14.88;2.10;;;;;;;5.23;100.00;99886.13;1016639;29;20373;-45
2023/12/22 01:02:22;;;;;;;6.63;1.52;;;;;;;5.16;100.00;99882.66;1015315;29;20387;-46
2023/12/22 01:03:06;;;;;;;9.25;1.42;;;;;;;5.12;100.00;99886.72;1014896;29;20323;-47
2023/12/22 01:04:16;;;;;;;13.88;1.80;;;;;;;5.14;100.00;99879.41;1007793;29;20313;-44
2023/12/22 01:05:37;;;;;;;9.70;3.25;;;;;;;5.19;100.00;99878.78;1005510;29;20412;-46
2023/12/22 01:06:31;;;;;;;14.40;3.75;;;;;;;5.18;100.00;99885.91;1011294;29;20308;-52
2023/12/22 01:07:44;;;;;;;12.77;1.05;;;;;;;5.24;100.00;99879.84;1010567;29;20918;-54
2023/12/22 01:08:42;;;;;;;6.80;1.02;;;;;;;5.38;100.00;99893.00;1012540;29;20308;-47
2023/12/22 01:09:25;;;;;;;3.63;0.80;;;;;;;5.35;100.00;99880.22;1016818;29;20326;-47
2023/12/22 01:10:29;;;;;;;8.13;1.33;;;;;;;5.30;100.00;99882.66;1012041;29;20316;-46
2023/12/22 01:11:48;;;;;;;7.50;1.73;;;;;;;5.43;100.00;99885.28;1009673;29;20072;-45
2023/12/22 01:12:32;;;;;;;7.95;1.73;;;;;;;5.35;100.00;99886.31;1014429;29;20315;-45
2023/12/22 01:13:41;;;;;;;5.28;1.33;;;;;;;5.35;100.00;99881.03;1013147;29;20313;-47
2023/12/22 01:14:56;;;;;;;7.25;1.10;;;;;;;5.36;100.00;99890.56;1009166;29;20313;-56
2023/12/22 01:16:08;;;;;;;8.75;2.28;;;;;;;5.37;100.00;99878.19;1008327;29;20305;-47
2023/12/22 01:17:20;;;;;;;16.75;1.60;;;;;;;5.47;100.00;99881.19;1012779;29;20313;-55
2023/12/22 01:18:16;;;;;;;7.63;1.08;;;;;;;5.56;100.00;99887.91;1005556;29;20329;-55
2023/12/22 01:19:16;;;;;;;14.60;2.53;;;;;;;5.44;100.00;99889.53;1004930;29;20049;-46
2023/12/22 01:20:15;;;;;;;10.60;2.83;;;;;;;5.42;100.00;99891.56;1011609;29;20056;-49
2023/12/22 01:21:31;;;;;;;5.63;1.17;;;;;;;5.41;100.00;99890.75;1009299;29;20443;-51
2023/12/22 01:22:23;;;;;;;;;;;;;;;;;;;;;
2023/12/22 01:23:30;;;;;;;13.80;1.98;;;;;;;5.36;100.00;99887.94;1004432;29;20414;-55
2023/12/22 01:24:45;;;;;;;8.68;0.73;;;;;;;5.40;100.00;99888.31;1011085;29;20308;-55
2023/12/22 01:25:36;;;;;;;14.75;1.20;;;;;;;5.32;100.00;99891.19;1007275;29;20314;-48
2023/12/22 01:26:42;;;;;;;8.18;1.15;;;;;;;5.30;100.00;99896.69;1012239;29;20305;-50
2023/12/22 01:27:55;;;;;;;11.35;2.20;;;;;;;5.39;100.00;99886.69;1008887;29;20488;-55
2023/12/22 01:28:59;;;;;;;;;;;;;;;;;;;;;
2023/12/22 01:29:45;;;;;;;8.25;1.60;;;;;;;5.30;100.00;99898.50;1015847;29;20379;-55
2023/12/22 01:30:32;;;;;;;5.95;1.15;;;;;;;5.39;100.00;99902.53;1003782;29;20313;-50
2023/12/22 01:31:38;;;;;;;;;;;;;;;5.45;100.00;99902.53;1006416;29;20294;-49
2023/12/22 01:32:25;;;;;;;6.97;1.30;;;;;;;5.41;100.00;99898.69;1016550;29;19946;-49
2023/12/22 01:33:17;;;;;;;15.68;1.30;;;;;;;5.43;100.00;99899.28;1015715;29;20320;-48
2023/12/22 01:34:21;;;;;;;6.13;1.35;;;;;;;5.54;100.00;99903.16;1007827;29;20310;-56
2023/12/22 01:35:30;;;;;;;3.72;0.47;;;;;;;5.52;100.00;99902.53;1009510;29;20337;-46
2023/12/22 01:36:55;;;;;;;7.03;2.03;;;;;;;5.54;100.00;99913.72;1015761;29;20323;-46
2023/12/22 01:38:03;;;;;;;4.82;1.05;;;;;;;5.51;100.00;99901.72;1008671;29;20338;-48
2023/12/22 01:38:41;;;;;;;7.93;1.98;;;;;;;5.50;100.00;99905.38;1015833;29;20667;-54
2023/12/22 01:39:31;;;;;;;7.22;0.93;;;;;;;5.47;100.00;99904.97;1007409;29;20328;-55
2023/12/22 01:40:42;;;;;;;4.50;1.52;;;;;;;5.43;100.00;99914.31;1006139;29;20342;-47
2023/12/22 01:41:37;;;;;;;10.25;1.33;;;;;;;5.38;100.00;99922.06;1018785;29;20746;-49
2023/12/22 01:42:40;;;;;;;8.75;1.27;;;;;;;5.37;100.00;99923.06;1020659;29;20331;-47
2023/12/22 01:43:43;;;;;;;4.70;0.80;;;;;;;5.44;100.00;99905.38;1006831;29;20317;-55
2023/12/22 01:44:59;;;;;;;3.40;0.63;;;;;;;5.39;100.00;99910.47;1006366;29;20310;-52
2023/12/22 01:46:18;;;;;;;4.35;1.05;;;;;;;5.39;100.00;99915.75;1005336;29;20392;-55
2023/12/22 01:47:13;;;;;;;5.32;1.23;;;;;;;5.31;100.00;99910.69;1012037;29;20309;-56
2023/12/22 01:48:02;;;;;;;5.20;1.25;;;;;;;5.30;100.00;99917.81;1015135;29;20803;-56
2023/12/22 01:48:43;;;;;;;6.45;0.85;;;;;;;5.34;100.00;99905.00;1014718;29;20687;-48
2023/12/22 01:49:36;;;;;;;5.20;1.05;;;;;;;5.25;100.00;99907.84;1003960;29;20749;-55
2023/12/22 01:50:13;;;;;;;6.65;1.00;;;;;;;5.26;100.00;99909.47;1003648;29;20402;-55
2023/12/22 01:51:17;;;;;;;9.40;0.95;;;;;;;5.30;100.00;99909.06;1001979;29;20319;-55
2023/12/22 01:51:56;;;;;;;12.68;2.13;;;;;;;5.25;100.00;99915.78;1007593;29;20313;-47
2023/12/22 01:52:31;;;;;;;11.75;1.23;;;;;;;5.31;100.00;99927.34;1008512;29;20308;-48
2023/12/22 01:53:03;;;;;;;4.30;0.90;;;;;;;5.26;100.00;99925.31;1011094;29;20301;-46
2023/12/22 01:54:01;;;;;;;7.55;1.20;;;;;;;5.23;100.00;99919.63;1010558;29;20309;-47
2023/12/22 01:54:52;;;;;;;6.75;0.95;;;;;;;5.25;100.00;99931.63;1015133;29;20775;-47
2023/12/22 01:55:59;;;;;;;7.32;1.38;;;;;;;5.12;100.00;99928.97;1012800;29;20301;-48
2023/12/22 01:56:54;;;;;;;11.75;2.05;;;;;;;5.10;100.00;99936.28;1007898;29;20705;-46
2023/12/22 01:57:36;;;;;;;6.15;0.80;;;;;;;5.08;100.00;99930.38;1007798;29;20333;-54
2023/12/22 01:59:06;;;;;;;;;;;;;;;;;;;;;
2023/12/22 01:59:52;;;;;;;6.45;1.35;;;;;;;5.22;100.00;99934.66;1010182;29;20462;-55
2023/12/22 02:00:43;;;;;;;5.38;1.27;;;;;;;5.17;100.00;99928.34;1006737;29;20337;-53
2023/12/22 02:01:44;;;;;;;9.23;1.60;;;;;;;5.30;100.00;99930.19;1011253;29;20839;-47
2023/12/22 02:02:46;;;;;;;9.55;1.65;;;;;;;5.23;100.00;99938.94;1001030;29;20769;-55
2023/12/22 02:03:22;;;;;;;5.30;0.90;;;;;;;5.21;100.00;99938.31;1008259;29;20309;-55
2023/12/22 02:04:13;;;;;;;6.18;1.23;;;;;;;5.25;100.00;99934.25;1009788;29;20810;-55
2023/12/22 02:05:05;;;;;;;5.55;0.93;;;;;;;5.32;100.00;99934.25;1013045;29;20309;-48
2023/12/22 02:06:02;;;;;;;7.57;0.90;;;;;;;5.23;100.00;99928.38;1012053;29;20452;-55
2023/12/22 02:07:28;;;;;;;7.65;1.27;;;;;;;5.28;100.00;99933.84;1007901;29;20378;-55
2023/12/22 02:08:23;;;;;;;15.13;2.15;;;;;;;5.27;100.00;99934.88;1007700;29;20049;-48
2023/12/22 02:09:32;;;;;;;6.50;1.33;;;;;;;5.13;100.00;99937.69;1008412;29;20959;-53
2023/12/22 02:10:30;;;;;;;4.50;2.15;;;;;;;5.22;100.00;99929.38;1011498;29;20311;-46
2023/12/22 02:11:35;;;;;;;6.15;1.05;;;;;;;5.19;100.00;99932.41;1012123;29;20320;-48
2023/12/22 02:12:23;;;;;;;4.15;0.52;;;;;;;5.17;100.00;99931.78;1011673;29;20313;-46
2023/12/22 02:13:14;;;;;;;9.02;1.95;;;;;;;5.15;100.00;99930.38;1014451;29;20313;-55
2023/12/22 02:14:32;;;;;;;8.25;0.70;;;;;;;5.14;100.00;99905.81;1009648;29;20353;-55
2023/12/22 02:15:54;;;;;;;7.97;1.23;;;;;;;5.24;100.00;99931.81;1006041;29;20338;-53
2023/12/22 02:17:35;;;;;;;4.05;0.85;;;;;;;5.32;100.00;99967.75;1022215;28;20310;-49
2023/12/22 02:18:41;;;;;;;20.13;1.67;;;;;;;5.30;100.00;99972.44;1022658;29;20104;-56
2023/12/22 02:20:04;;;;;;;11.30;1.20;;;;;;;5.25;100.00;99955.38;1005507;29;20325;-55
2023/12/22 02:21:20;;;;;;;15.20;1.38;;;;;;;5.03;100.00;99977.69;998197;29;20375;-55
2023/12/22 02:23:00;;;;;;;4.18;1.67;;;;;;;4.75;100.00;99964.66;1006194;29;20438;-54
2023/12/22 02:24:11;;;;;;;5.47;0.45;;;;;;;4.50;100.00;99972.28;1005979;29;20333;-48
2023/12/22 02:25:24;;;;;;;2.80;0.80;;;;;;;4.42;100.00;99967.19;1002554;29;20113;-55
2023/12/22 02:26:44;;;;;;;9.05;1.35;;;;;;;4.32;100.00;99974.66;999718;29;20307;-49
2023/12/22 02:27:46;;;;;;;4.95;0.90;;;;;;;4.27;100.00;99982.34;1004247;29;20321;-47
2023/12/22 02:28:36;;;;;;;3.60;0.80;;;;;;;4.24;100.00;99980.09;1002053;29;20303;-54
2023/12/22 02:29:46;;;;;;;6.80;0.75;;;;;;;4.23;100.00;99991.66;1002267;29;20303;-55
2023/12/22 02:30:46;;;;;;;1.45;0.50;;;;;;;4.11;100.00;99993.19;1005721;29;20832;-54
2023/12/22 02:32:16;;;;;;;6.72;0.88;;;;;;;4.03;100.00;99981.00;1004878;29;20833;-51
2023/12/22 02:33:18;;;;;;;9.15;1.23;;;;;;;4.03;100.00;99979.16;1001812;29;20311;-55
2023/12/22 02:34:16;;;;;;;3.92;0.60;;;;;;;4.07;100.00;99984.06;1004272;29;20315;-55
2023/12/22 02:35:23;;;;;;;2.40;0.57;;;;;;;3.98;100.00;99978.94;1006352;29;20314;-56
2023/12/22 02:36:42;;;;;;;1.50;0.70;;;;;;;4.03;100.00;99989.72;1006647;29;20721;-55
2023/12/22 02:37:36;;;;;;;4.10;0.85;;;;;;;4.09;100.00;99982.03;1007267;29;20333;-49
2023/12/22 02:38:59;;;;;;;2.47;1.40;;;;;;;4.10;100.00;99970.47;1003100;29;20719;-55
2023/12/22 02:39:44;;;;;;;3.10;0.60;;;;;;;4.07;100.00;99978.78;1005294;29;20326;-47
2023/12/22 02:40:26;;;;;;;3.05;0.60;;;;;;;4.14;100.00;99972.56;1010006;29;20321;-55
2023/12/22 02:41:27;;;;;;;8.38;0.73;;;;;;;4.19;100.00;99966.69;1004157;29;20370;-49
2023/12/22 02:42:29;;;;;;;5.72;0.82;;;;;;;4.19;100.00;99974.59;1005788;29;20902;-55
2023/12/22 02:43:43;;;;;;;4.53;1.02;;;;;;;4.23;100.00;99973.19;1001783;29;20345;-54
2023/12/22 02:44:38;;;;;;;1.50;0.55;;;;;;;4.17;100.00;99966.88;1006359;29;20411;-48
2023/12/22 02:45:47;;;;;;;1.55;0.75;;;;;;;4.22;100.00;99968.94;991825;29;20422;-49
2023/12/22 02:46:37;;;;;;;5.70;1.23;;;;;;;4.16;100.00;99964.44;988516;29;20347;-53
2023/12/22 02:47:08;;;;;;;5.85;1.05;;;;;;;4.17;100.00;99961.63;995942;29;20058;-47
2023/12/22 02:47:41;;;;;;;6.00;0.52;;;;;;;4.17;100.00;99958.16;996202;29;20824;-47
2023/12/22 02:48:12;;;;;;;5.53;0.85;;;;;;;4.15;100.00;99954.91;1005398;29;20313;-46
2023/12/22 02:48:44;;;;;;;5.97;1.35;;;;;;;4.13;100.00;99954.31;1006152;29;21669;-47
2023/12/22 02:49:17;;;;;;;7.55;0.82;;;;;;;4.18;100.00;99952.72;1006695;29;20321;-48
2023/12/22 02:49:48;;;;;;;4.47;1.15;;;;;;;4.25;100.00;99958.00;1007139;29;20353;-55
2023/12/22 02:50:20;;;;;;;5.25;1.10;;;;;;;4.19;100.00;99956.97;1007042;29;20320;-55
2023/12/22 02:50:52;;;;;;;3.58;0.50;;;;;;;4.22;100.00;99968.94;1007226;29;20423;-56
2023/12/22 02:51:23;;;;;;;2.60;0.65;;;;;;;4.25;100.00;99973.81;1006963;29;20310;-54
2023/12/22 02:51:55;;;;;;;2.22;0.90;;;;;;;4.30;100.00;99976.66;1007069;29;20309;-55
2023/12/22 02:52:26;;;;;;;5.32;0.55;;;;;;;4.32;100.00;99982.56;1006958;29;20309;-46
2023/12/22 02:52:58;;;;;;;2.63;1.15;;;;;;;4.33;100.00;99981.53;1006859;29;20804;-44
2023/12/22 02:53:30;;;;;;;5.22;1.13;;;;;;;4.35;100.00;99979.53;1003379;29;20318;-48
2023/12/22 02:54:01;;;;;;;2.97;0.82;;;;;;;4.38;100.00;99978.31;1003512;29;20399;-48
2023/12/22 02:54:33;;;;;;;2.83;0.82;;;;;;;4.36;100.00;99981.16;1003168;29;20314;-55
2023/12/22 02:55:05;;;;;;;2.15;0.50;;;;;;;4.32;100.00;99979.91;1003499;29;22138;-55
2023/12/22 02:55:37;;;;;;;8.15;0.70;;;;;;;4.30;100.00;99993.28;1003551;29;20312;-55
2023/12/22 02:56:09;;;;;;;5.88;1.05;;;;;;;4.29;100.00;99991.66;1003808;29;20306;-55
2023/12/22 02:56:42;;;;;;;3.85;0.52;;;;;;;4.26;100.00;99991.25;1003461;29;20444;-55
2023/12/22 02:57:14;;;;;;;3.00;1.00;;;;;;;4.28;100.00;99983.97;1003619;29;20819;-55
2023/12/22 02:57:45;;;;;;;3.33;0.60;;;;;;;4.19;100.00;99977.25;1006994;29;20309;-54
2023/12/22 02:58:17;;;;;;;3.13;0.50;;;;;;;4.22;100.00;99982.13;1013169;29;20314;-54
2023/12/22 02:58:49;;;;;;;2.50;0.88;;;;;;;4.13;100.00;99993.84;1015121;29;20647;-54
2023/12/22 02:59:21;;;;;;;3.20;1.25;;;;;;;4.14;100.00;99987.56;1015020;29;20308;-55
2023/12/22 02:59:52;;;;;;;2.95;0.52;;;;;;;4.08;100.00;99977.78;1013687;29;20375;-54
2023/12/22 03:00:24;;;;;;;7.80;1.08;;;;;;;4.08;100.00;99981.22;1015744;29;20296;-54
2023/12/22 03:00:56;;;;;;;4.85;0.55;;;;;;;4.11;100.00;99980.00;1015972;29;20657;-55
2023/12/22 03:01:27;;;;;;;4.10;0.50;;;;;;;4.09;100.00;99976.75;1014752;29;20731;-55
2023/12/22 03:01:59;;;;;;;3.13;1.02;;;;;;;4.06;100.00;99982.44;1015084;29;20371;-52
2023/12/22 03:02:31;;;;;;;5.90;1.10;;;;;;;4.01;100.00;99983.81;1014992;29;20307;-55
2023/12/22 03:03:03;;;;;;;5.25;1.58;;;;;;;4.01;100.00;99989.09;1013063;29;20353;-54
2023/12/22 03:03:34;;;;;;;6.00;1.05;;;;;;;4.03;100.00;99981.00;1014122;29;20786;-53
2023/12/22 03:04:06;;;;;;;3.47;0.75;;;;;;;4.08;100.00;99986.50;1015856;29;20815;-55
2023/12/22 03:04:38;;;;;;;4.20;1.20;;;;;;;4.09;100.00;99989.94;1013596;29;20300;-55
2023/12/22 03:05:09;;;;;;;3.47;1.27;;;;;;;4.09;100.00;99987.31;1015642;29;20311;-55
2023/12/22 03:05:41;;;;;;;5.43;0.95;;;;;;;4.08;100.00;99972.50;1015295;29;20402;-55
2023/12/22 03:06:13;;;;;;;2.72;0.80;;;;;;;4.11;100.00;99972.09;1015323;29;20296;-55
2023/12/22 03:06:44;;;;;;;10.95;1.38;;;;;;;4.09;100.00;99971.50;1015138;29;20549;-55
2023/12/22 03:07:16;;;;;;;4.28;0.77;;;;;;;4.08;100.00;99972.50;1015246;29;20798;-54
2023/12/22 03:07:48;;;;;;;8.55;0.75;;;;;;;4.17;100.00;99981.91;1015831;29;20640;-55
2023/12/22 03:08:20;;;;;;;7.78;1.25;;;;;;;4.20;100.00;99976.22;1015855;29;20292;-55
2023/12/22 03:08:51;;;;;;;3.60;0.80;;;;;;;4.15;100.00;99976.81;1014590;29;20322;-55
2023/12/22 03:09:23;;;;;;;7.30;0.70;;;;;;;4.15;100.00;99973.38;1015349;29;20331;-54
2023/12/22 03:09:55;;;;;;;3.60;0.70;;;;;;;4.14;100.00;99984.91;1015499;29;20798;-48
2023/12/22 03:10:29;;;;;;;4.55;0.60;;;;;;;4.13;100.00;99984.09;1015263;29;20312;-47
2023/12/22 03:11:00;;;;;;;4.63;1.10;;;;;;;4.14;100.00;99977.00;1015539;29;20308;-46
2023/12/22 03:11:32;;;;;;;3.92;0.73;;;;;;;4.13;100.00;99986.75;1022997;29;20303;-47
2023/12/22 03:12:04;;;;;;;6.45;0.80;;;;;;;4.12;100.00;99984.31;1020564;29;20311;-46
2023/12/22 03:12:36;;;;;;;5.90;1.00;;;;;;;4.10;100.00;99981.84;1019202;29;20639;-48
2023/12/22 03:13:07;;;;;;;2.95;0.70;;;;;;;4.06;100.00;99980.59;1022068;29;20310;-47
2023/12/22 03:13:39;;;;;;;5.25;0.82;;;;;;;4.09;100.00;99982.03;1015502;29;20321;-46
2023/12/22 03:14:11;;;;;;;3.80;1.58;;;;;;;4.05;100.00;99978.97;1015327;29;20295;-49
2023/12/22 03:14:42;;;;;;;1.95;0.80;;;;;;;4.06;100.00;99982.44;1015312;29;20870;-47
2023/12/22 03:15:14;;;;;;;3.30;0.75;;;;;;;4.02;100.00;99990.72;1015399;29;20443;-48
2023/12/22 03:15:47;;;;;;;6.63;1.20;;;;;;;4.06;100.00;99990.34;1014979;29;20795;-48
2023/12/22 03:16:18;;;;;;;3.28;0.65;;;;;;;4.06;100.00;100000.88;1015386;29;20399;-46
2023/12/22 03:16:50;;;;;;;3.50;0.80;;;;;;;4.03;100.00;99979.16;1015626;29;20370;-47
2023/12/22 03:17:22;;;;;;;4.85;0.77;;;;;;;3.99;100.00;99988.47;1014687;29;20320;-48
2023/12/22 03:17:53;;;;;;;3.20;0.90;;;;;;;4.00;100.00;99986.66;1015081;29;20390;-54
2023/12/22 03:18:25;;;;;;;4.97;0.98;;;;;;;4.03;100.00;99966.00;1015391;29;20790;-54
2023/12/22 03:18:57;;;;;;;3.20;1.05;;;;;;;4.02;100.00;99968.84;1014946;29;20378;-55
2023/12/22 03:19:29;;;;;;;6.60;1.60;;;;;;;4.06;100.00;99974.53;1015066;29;20529;-55
2023/12/22 03:20:01;;;;;;;2.88;0.77;;;;;;;4.03;100.00;99973.91;1011667;29;20795;-55
2023/12/22 03:20:33;;;;;;;8.05;1.00;;;;;;;4.01;100.00;99978.56;1015011;29;20288;-55
2023/12/22 03:21:05;;;;;;;11.13;1.70;;;;;;;4.02;100.00;99974.91;1011427;29;20783;-54
2023/12/22 03:21:36;;;;;;;6.55;0.75;;;;;;;3.97;100.00;99985.22;1014830;29;20312;-55
2023/12/22 03:22:09;;;;;;;9.27;1.48;;;;;;;3.97;100.00;99985.22;1015392;29;20308;-54
2023/12/22 03:22:40;;;;;;;6.63;0.95;;;;;;;3.98;100.00;99964.97;1015248;29;20310;-55
2023/12/22 03:23:12;;;;;;;9.18;1.85;;;;;;;4.00;100.00;99966.38;1015227;29;20818;-54
2023/12/22 03:23:43;;;;;;;5.13;0.60;;;;;;;3.94;100.00;99959.28;1015168;29;20310;-55
2023/12/22 03:24:15;;;;;;;7.43;1.55;;;;;;;3.95;100.00;99958.25;1013696;29;20337;-54
2023/12/22 03:24:47;;;;;;;10.63;1.55;;;;;;;3.93;100.00;99959.47;1015429;29;20873;-55
2023/12/22 03:25:19;;;;;;;6.95;1.38;;;;;;;3.94;100.00;99954.00;1015018;29;20304;-47
2023/12/22 03:25:51;;;;;;;5.45;1.08;;;;;;;3.93;100.00;99949.75;1014620;29;20806;-47
2023/12/22 03:26:22;;;;;;;5.00;1.27;;;;;;;3.89;100.00;99958.25;1014608;29;20318;-49
2023/12/22 03:26:54;;;;;;;6.10;1.02;;;;;;;3.95;100.00;99950.34;1015127;29;20498;-46
2023/12/22 03:27:26;;;;;;;5.13;0.85;;;;;;;3.94;100.00;99961.09;1015280;29;20829;-46
2023/12/22 03:27:58;;;;;;;9.85;1.10;;;;;;;4.00;100.00;99958.50;1015866;29;20308;-55
2023/12/22 03:28:29;;;;;;;13.25;2.22;;;;;;;4.00;100.00;99961.13;1015767;29;20763;-54
2023/12/22 03:29:01;;;;;;;2.97;1.08;;;;;;;3.99;100.00;99963.94;1015226;29;20390;-55
2023/12/22 03:29:33;;;;;;;6.60;0.80;;;;;;;4.00;100.00;99966.38;1014997;29;20300;-54
2023/12/22 03:30:05;;;;;;;2.03;0.73;;;;;;;4.00;100.00;99960.31;1014608;29;20314;-54
2023/12/22 03:30:37;;;;;;;7.03;1.63;;;;;;;4.01;100.00;99961.94;1014666;29;20310;-55
2023/12/22 03:31:09;;;;;;;6.43;1.70;;;;;;;4.06;100.00;99959.53;1015082;29;20304;-55
2023/12/22 03:31:41;;;;;;;10.13;1.50;;;;;;;4.06;100.00;99954.25;1015152;29;20647;-55
2023/12/22 03:32:13;;;;;;;7.07;1.20;;;;;;;4.09;100.00;99968.84;1015692;29;20307;-55
2023/12/22 03:32:44;;;;;;;13.00;3.13;;;;;;;4.11;100.00;99954.50;1013390;29;20325;-55
2023/12/22 03:33:16;;;;;;;8.50;1.52;;;;;;;4.23;100.00;99965.28;1015497;29;20296;-54
2023/12/22 03:33:48;;;;;;;6.18;1.83;;;;;;;4.22;100.00;99974.22;1015205;29;20367;-53
2023/12/22 03:34:19;;;;;;;13.48;1.92;;;;;;;4.22;100.00;99971.56;1014981;29;20303;-55
2023/12/22 03:34:51;;;;;;;9.50;1.70;;;;;;;4.26;100.00;99975.44;1014995;29;20838;-55
2023/12/22 03:35:23;;;;;;;5.95;1.48;;;;;;;4.23;100.00;99973.19;1015050;29;20296;-55
2023/12/22 03:35:54;;;;;;;11.05;1.58;;;;;;;4.24;100.00;99966.91;1014983;29;20304;-55
2023/12/22 03:36:26;;;;;;;7.68;1.73;;;;;;;4.29;100.00;99983.75;1013704;29;20319;-55
2023/12/22 03:36:58;;;;;;;8.88;1.58;;;;;;;4.32;100.00;99985.19;1015187;29;20316;-55
2023/12/22 03:37:29;;;;;;;10.85;1.40;;;;;;;4.31;100.00;99976.47;1015346;29;20337;-55
2023/12/22 03:38:01;;;;;;;8.68;1.52;;;;;;;4.34;100.00;99978.72;1014989;29;20296;-54
2023/12/22 03:38:35;;;;;;;4.72;0.98;;;;;;;4.38;100.00;99976.50;1015197;29;20307;-55
2023/12/22 03:39:06;;;;;;;8.70;1.60;;;;;;;4.36;100.00;99981.16;1015114;29;20388;-55
2023/12/22 03:39:38;;;;;;;4.13;1.35;;;;;;;4.37;100.00;99988.03;1015162;29;20296;-55
2023/12/22 03:40:10;;;;;;;6.72;1.35;;;;;;;4.40;100.00;99976.31;1015876;29;20302;-55
2023/12/22 03:40:42;;;;;;;4.55;1.13;;;;;;;4.40;100.00;99981.59;1013106;29;20409;-55
2023/12/22 03:41:13;;;;;;;12.85;1.95;;;;;;;4.39;100.00;99986.06;1015318;29;20307;-54
2023/12/22 03:41:45;;;;;;;9.45;2.38;;;;;;;4.43;100.00;99987.28;1015375;29;20370;-54
2023/12/22 03:42:16;;;;;;;4.40;1.35;;;;;;;4.50;100.00;99971.47;1015103;29;20310;-54
2023/12/22 03:42:48;;;;;;;6.03;1.48;;;;;;;4.46;100.00;99980.78;1015371;29;20366;-55
2023/12/22 03:43:20;;;;;;;9.20;1.33;;;;;;;4.42;100.00;99985.66;1015028;29;20296;-55
2023/12/22 03:43:51;;;;;;;6.00;1.58;;;;;;;4.40;100.00;99973.69;1015505;29;20308;-54
2023/12/22 03:44:23;;;;;;;7.80;2.13;;;;;;;4.40;100.00;99977.13;1013498;29;20333;-54
2023/12/22 03:44:57;;;;;;;10.95;1.25;;;;;;;4.42;100.00;99977.75;1015626;29;20300;-55
2023/12/22 03:45:28;;;;;;;11.50;2.00;;;;;;;4.42;100.00;99969.84;1015305;29;20303;-54
2023/12/22 03:46:00;;;;;;;8.70;1.77;;;;;;;4.43;100.00;99970.66;1014939;29;20314;-55
2023/12/22 03:46:32;;;;;;;11.25;3.55;;;;;;;4.38;100.00;99976.50;1015148;29;20451;-54
2023/12/22 03:47:03;;;;;;;10.77;1.38;;;;;;;4.43;100.00;99970.66;1015261;29;20304;-55
2023/12/22 03:47:35;;;;;;;6.28;1.65;;;;;;;4.44;100.00;99973.09;1015443;29;20435;-55
2023/12/22 03:48:07;;;;;;;8.25;2.03;;;;;;;4.41;100.00;99981.41;1015643;29;20326;-55
2023/12/22 03:48:38;;;;;;;7.78;1.98;;;;;;;4.48;100.00;99974.31;1015578;29;20311;-46
2023/12/22 03:49:10;;;;;;;11.13;1.85;;;;;;;4.52;100.00;99985.28;1015142;29;20300;-47
2023/12/22 03:49:41;;;;;;;9.05;2.38;;;;;;;4.49;100.00;99981.22;1014627;29;20712;-47
2023/12/22 03:50:13;;;;;;;6.80;1.77;;;;;;;4.48;100.00;99976.94;1015234;29;20308;-46
2023/12/22 03:50:45;;;;;;;7.70;2.13;;;;;;;4.49;100.00;99985.69;1015317;29;20565;-47
2023/12/22 03:51:16;;;;;;;3.83;1.38;;;;;;;4.45;100.00;99977.34;1016920;29;20362;-46
2023/12/22 03:51:48;;;;;;;11.30;1.95;;;;;;;4.47;100.00;99980.59;1017418;29;20363;-49
2023/12/22 03:52:20;;;;;;;8.32;1.58;;;;;;;4.52;100.00;99975.53;1013338;29;20755;-46
2023/12/22 03:52:52;;;;;;;7.78;1.63;;;;;;;4.46;100.00;99960.50;1011318;29;20842;-47
2023/12/22 03:53:23;;;;;;;11.30;1.83;;;;;;;4.39;100.00;99980.78;1011208;29;20308;-46